TimeCDT,TemperatureF,Dew PointF,Humidity,Sea Level PressureIn,VisibilityMPH,Wind Direction,Wind SpeedMPH,Gust SpeedMPH,PrecipitationIn,Events,Conditions,WindDirDegrees,DateUTC
12:53 AM,62.1,51.1,67,29.51,10.0,ESE,8.1,-,N/A,,Partly Cloudy,120,2013-04-30 05:53:00
1:53 AM,61.0,54.0,78,29.47,9.0,ESE,8.1,-,N/A,,Partly Cloudy,120,2013-04-30 06:53:00
2:53 AM,62.1,54.0,75,29.43,9.0,ESE,11.5,-,N/A,,Mostly Cloudy,120,2013-04-30 07:53:00
3:53 AM,62.1,54.0,75,29.41,9.0,SE,11.5,21.9,0.00,,Mostly Cloudy,130,2013-04-30 08:53:00
4:53 AM,61.0,54.0,78,29.38,10.0,SE,10.4,-,N/A,,Clear,140,2013-04-30 09:53:00
5:53 AM,60.1,54.0,80,29.37,10.0,SSE,12.7,-,N/A,,Clear,150,2013-04-30 10:53:00
6:53 AM,63.0,55.9,78,29.38,10.0,South,13.8,-,N/A,,Clear,170,2013-04-30 11:53:00
7:53 AM,64.9,51.1,61,29.42,10.0,WSW,15.0,23.0,N/A,,Clear,240,2013-04-30 12:53:00
8:53 AM,62.1,46.9,58,29.47,10.0,West,18.4,-,N/A,,Clear,280,2013-04-30 13:53:00
9:53 AM,61.0,45.0,56,29.53,10.0,West,28.8,35.7,N/A,,Clear,280,2013-04-30 14:53:00
10:53 AM,61.0,42.1,50,29.58,10.0,WNW,26.5,32.2,N/A,,Clear,300,2013-04-30 15:53:00
11:53 AM,61.0,43.0,52,29.62,10.0,WNW,15.0,28.8,N/A,,Clear,300,2013-04-30 16:53:00
12:53 PM,64.9,42.1,43,29.65,10.0,West,18.4,26.5,N/A,,Clear,280,2013-04-30 17:53:00
1:53 PM,66.9,34.0,30,29.67,10.0,WNW,20.7,28.8,N/A,,Clear,290,2013-04-30 18:53:00
2:53 PM,66.9,30.9,26,29.70,10.0,WNW,20.7,26.5,N/A,,Clear,290,2013-04-30 19:53:00
3:53 PM,64.9,27.0,24,29.74,10.0,West,20.7,26.5,N/A,,Clear,270,2013-04-30 20:53:00
4:53 PM,64.9,30.0,27,29.79,10.0,WNW,20.7,25.3,N/A,,Partly Cloudy,300,2013-04-30 21:53:00
5:53 PM,61.0,30.9,32,29.83,10.0,WNW,13.8,-,N/A,,Mostly Cloudy,290,2013-04-30 22:53:00
6:53 PM,59.0,32.0,36,29.87,10.0,West,15.0,-,N/A,,Overcast,270,2013-04-30 23:53:00
7:53 PM,57.0,35.1,44,29.88,10.0,WNW,10.4,-,N/A,,Mostly Cloudy,300,2013-05-01 00:53:00
8:53 PM,55.0,35.1,47,29.90,10.0,WNW,9.2,-,N/A,,Mostly Cloudy,300,2013-05-01 01:53:00
9:53 PM,54.0,34.0,47,29.93,10.0,WNW,15.0,-,N/A,,Clear,300,2013-05-01 02:53:00
10:53 PM,52.0,34.0,50,29.97,10.0,WNW,12.7,-,N/A,,Overcast,300,2013-05-01 03:53:00
11:53 PM,51.8,33.8,50,29.97,10.0,NW,13.8,-,N/A,,Overcast,310,2013-05-01 04:53:00